Obea — FAA2295 — position and weather

sailwx.info

Track history (hours):
 
Tides and Currents Weather Stations Pressure Air Temp Water Temp Dewpoint Dewpoint Depression Visibility Wind Speed Wind Dir Waves Ship Positions

Obea

Last reported at 2017-Sep-01 15:50 UTC. Time now 2017-Sep-20 18:38 UTC.
Position N 47°33' W 002°54'.
Warning: this ship's position is 19 days out of date.

Type: Sailing vessel. MMSI: 227100580.

Date/timePositionNaut miles runAvg speedWind from/ knotsBaromVisibWave heightAir tempDewpointWater temp
2017-Sep-01 15:50N 47°33' W 002°54'1 2.6
2017-Sep-01 15:29N 47°32' W 002°55'3 5.5
2017-Sep-01 15:00N 47°30' W 002°56'5 1.3
2017-Sep-01 11:10N 47°25' W 002°58'1 7.2
2017-Sep-01 10:59N 47°26' W 002°58'3 5.5
2017-Sep-01 10:30N 47°29' W 002°57'2 4.5
2017-Sep-01 10:00N 47°31' W 002°55'1 2.9
2017-Sep-01 09:29N 47°32' W 002°55'  
2017-Aug-26 13:59N 47°33' W 002°54'1 2.9
2017-Aug-26 13:29N 47°31' W 002°54'3 6.1
2017-Aug-26 12:59N 47°29' W 002°52'3 6.3
2017-Aug-26 12:27N 47°26' W 002°48'  
Track history (hours):
 
Tides and Currents Weather Stations Pressure Air Temp Water Temp Dewpoint Dewpoint Depression Visibility Wind Speed Wind Dir Waves Ship Positions

Obea

Last reported at 2017-Sep-01 15:50 UTC. Time now 2017-Sep-20 18:38 UTC.
Position N 47°33' W 002°54'.
Warning: this ship's position is 19 days out of date.

Type: Sailing vessel. MMSI: 227100580.

Date/timePositionNaut miles runAvg speedWind from/ knotsBaromVisibWave heightAir tempDewpointWater temp
2017-Sep-01 15:50N 47°33' W 002°54'1 2.6
2017-Sep-01 15:29N 47°32' W 002°55'3 5.5
2017-Sep-01 15:00N 47°30' W 002°56'5 1.3
2017-Sep-01 11:10N 47°25' W 002°58'1 7.2
2017-Sep-01 10:59N 47°26' W 002°58'3 5.5
2017-Sep-01 10:30N 47°29' W 002°57'2 4.5
2017-Sep-01 10:00N 47°31' W 002°55'1 2.9
2017-Sep-01 09:29N 47°32' W 002°55'  
2017-Aug-26 13:59N 47°33' W 002°54'1 2.9
2017-Aug-26 13:29N 47°31' W 002°54'3 6.1
2017-Aug-26 12:59N 47°29' W 002°52'3 6.3
2017-Aug-26 12:27N 47°26' W 002°48'  

Dump ship's entire track history